sensor_id;sensor_type;location;lat;lon;timestamp;pressure;altitude;pressure_sealevel;temperature
11321;BMP180;5715;48.234;14.320;2024-02-26T00:00:07;97061.00;;;10.10
11321;BMP180;5715;48.234;14.320;2024-02-26T00:02:56;97062.00;;;10.10
11321;BMP180;5715;48.234;14.320;2024-02-26T00:05:44;97060.00;;;10.10
11321;BMP180;5715;48.234;14.320;2024-02-26T00:08:32;97074.00;;;10.00
11321;BMP180;5715;48.234;14.320;2024-02-26T00:11:19;97065.00;;;9.90
11321;BMP180;5715;48.234;14.320;2024-02-26T00:14:07;97066.00;;;9.80
11321;BMP180;5715;48.234;14.320;2024-02-26T00:16:55;97068.00;;;9.90
11321;BMP180;5715;48.234;14.320;2024-02-26T00:19:42;97057.00;;;9.90
11321;BMP180;5715;48.234;14.320;2024-02-26T00:22:31;97054.00;;;9.80
11321;BMP180;5715;48.234;14.320;2024-02-26T00:25:19;97053.00;;;9.80
11321;BMP180;5715;48.234;14.320;2024-02-26T00:28:07;97052.00;;;9.80
11321;BMP180;5715;48.234;14.320;2024-02-26T00:30:54;97047.00;;;9.80
11321;BMP180;5715;48.234;14.320;2024-02-26T00:33:43;97048.00;;;9.80
11321;BMP180;5715;48.234;14.320;2024-02-26T00:36:31;97042.00;;;9.70
11321;BMP180;5715;48.234;14.320;2024-02-26T00:39:19;97049.00;;;9.70
11321;BMP180;5715;48.234;14.320;2024-02-26T00:42:06;97050.00;;;9.60
11321;BMP180;5715;48.234;14.320;2024-02-26T00:44:54;97037.00;;;9.60
11321;BMP180;5715;48.234;14.320;2024-02-26T00:47:42;97039.00;;;9.40
11321;BMP180;5715;48.234;14.320;2024-02-26T00:50:32;97038.00;;;9.50
11321;BMP180;5715;48.234;14.320;2024-02-26T00:53:19;97044.00;;;9.30
11321;BMP180;5715;48.234;14.320;2024-02-26T00:56:07;97033.00;;;9.40
11321;BMP180;5715;48.234;14.320;2024-02-26T00:58:55;97025.00;;;9.50
11321;BMP180;5715;48.234;14.320;2024-02-26T01:01:42;97027.00;;;9.40
11321;BMP180;5715;48.234;14.320;2024-02-26T01:04:30;97033.00;;;9.40
11321;BMP180;5715;48.234;14.320;2024-02-26T01:07:19;97024.00;;;9.40
11321;BMP180;5715;48.234;14.320;2024-02-26T01:10:07;97021.00;;;9.20
11321;BMP180;5715;48.234;14.320;2024-02-26T01:12:55;97014.00;;;9.20
11321;BMP180;5715;48.234;14.320;2024-02-26T01:15:43;97010.00;;;9.20
11321;BMP180;5715;48.234;14.320;2024-02-26T01:18:31;97009.00;;;9.20
11321;BMP180;5715;48.234;14.320;2024-02-26T01:21:19;97010.00;;;9.20
11321;BMP180;5715;48.234;14.320;2024-02-26T01:24:07;97005.00;;;9.10
11321;BMP180;5715;48.234;14.320;2024-02-26T01:26:55;97009.00;;;9.20
11321;BMP180;5715;48.234;14.320;2024-02-26T01:29:42;97002.00;;;9.00
11321;BMP180;5715;48.234;14.320;2024-02-26T01:32:31;97006.00;;;9.10
11321;BMP180;5715;48.234;14.320;2024-02-26T01:35:19;97005.00;;;9.10
11321;BMP180;5715;48.234;14.320;2024-02-26T01:38:07;96992.00;;;9.00
11321;BMP180;5715;48.234;14.320;2024-02-26T01:40:55;96999.00;;;9.00
11321;BMP180;5715;48.234;14.320;2024-02-26T01:43:42;96996.00;;;9.00
11321;BMP180;5715;48.234;14.320;2024-02-26T01:46:31;96997.00;;;9.00
11321;BMP180;5715;48.234;14.320;2024-02-26T01:49:20;96990.00;;;8.90
11321;BMP180;5715;48.234;14.320;2024-02-26T01:52:10;96991.00;;;8.80
11321;BMP180;5715;48.234;14.320;2024-02-26T01:54:58;96998.00;;;8.80
11321;BMP180;5715;48.234;14.320;2024-02-26T01:57:50;96986.00;;;8.80
11321;BMP180;5715;48.234;14.320;2024-02-26T02:00:39;96993.00;;;8.80
11321;BMP180;5715;48.234;14.320;2024-02-26T02:03:28;96998.00;;;8.90
11321;BMP180;5715;48.234;14.320;2024-02-26T02:06:17;96997.00;;;8.80
11321;BMP180;5715;48.234;14.320;2024-02-26T02:09:05;96998.00;;;8.80
11321;BMP180;5715;48.234;14.320;2024-02-26T02:11:55;96985.00;;;8.90
11321;BMP180;5715;48.234;14.320;2024-02-26T02:14:43;96991.00;;;8.90
11321;BMP180;5715;48.234;14.320;2024-02-26T02:17:31;96992.00;;;8.90
11321;BMP180;5715;48.234;14.320;2024-02-26T02:20:23;96986.00;;;9.00
11321;BMP180;5715;48.234;14.320;2024-02-26T02:23:11;96990.00;;;9.10
11321;BMP180;5715;48.234;14.320;2024-02-26T02:25:59;96993.00;;;9.00
11321;BMP180;5715;48.234;14.320;2024-02-26T02:28:48;96988.00;;;9.20
11321;BMP180;5715;48.234;14.320;2024-02-26T02:31:36;96983.00;;;9.20
11321;BMP180;5715;48.234;14.320;2024-02-26T02:34:24;96989.00;;;9.10
11321;BMP180;5715;48.234;14.320;2024-02-26T02:37:12;96993.00;;;9.10
11321;BMP180;5715;48.234;14.320;2024-02-26T02:40:00;96990.00;;;8.90
11321;BMP180;5715;48.234;14.320;2024-02-26T02:42:47;96983.00;;;9.10
11321;BMP180;5715;48.234;14.320;2024-02-26T02:45:35;96977.00;;;9.10
11321;BMP180;5715;48.234;14.320;2024-02-26T02:48:23;96981.00;;;9.10
11321;BMP180;5715;48.234;14.320;2024-02-26T02:51:11;96989.00;;;8.90
11321;BMP180;5715;48.234;14.320;2024-02-26T02:53:58;96983.00;;;9.10
11321;BMP180;5715;48.234;14.320;2024-02-26T02:56:46;96987.00;;;8.90
11321;BMP180;5715;48.234;14.320;2024-02-26T02:59:34;96984.00;;;8.80
11321;BMP180;5715;48.234;14.320;2024-02-26T03:02:22;96997.00;;;8.90
11321;BMP180;5715;48.234;14.320;2024-02-26T03:05:12;96993.00;;;8.80
11321;BMP180;5715;48.234;14.320;2024-02-26T03:08:00;96992.00;;;8.90
11321;BMP180;5715;48.234;14.320;2024-02-26T03:10:47;96989.00;;;8.80
11321;BMP180;5715;48.234;14.320;2024-02-26T03:13:35;96989.00;;;8.80
11321;BMP180;5715;48.234;14.320;2024-02-26T03:16:23;96986.00;;;8.90
11321;BMP180;5715;48.234;14.320;2024-02-26T03:19:14;96976.00;;;8.90
11321;BMP180;5715;48.234;14.320;2024-02-26T03:22:02;96983.00;;;8.80
11321;BMP180;5715;48.234;14.320;2024-02-26T03:24:49;96986.00;;;8.80
11321;BMP180;5715;48.234;14.320;2024-02-26T03:27:37;96983.00;;;8.80
11321;BMP180;5715;48.234;14.320;2024-02-26T03:30:25;96981.00;;;8.60
11321;BMP180;5715;48.234;14.320;2024-02-26T03:33:12;96979.00;;;8.60
11321;BMP180;5715;48.234;14.320;2024-02-26T03:36:00;96980.00;;;8.50
11321;BMP180;5715;48.234;14.320;2024-02-26T03:38:49;96976.00;;;8.60
11321;BMP180;5715;48.234;14.320;2024-02-26T03:41:36;96973.00;;;8.60
11321;BMP180;5715;48.234;14.320;2024-02-26T03:44:24;96978.00;;;8.50
11321;BMP180;5715;48.234;14.320;2024-02-26T03:47:12;96983.00;;;8.50
11321;BMP180;5715;48.234;14.320;2024-02-26T03:50:00;96980.00;;;8.60
11321;BMP180;5715;48.234;14.320;2024-02-26T03:52:47;96974.00;;;8.70
11321;BMP180;5715;48.234;14.320;2024-02-26T03:55:35;96975.00;;;8.80
11321;BMP180;5715;48.234;14.320;2024-02-26T03:58:23;96981.00;;;8.80
11321;BMP180;5715;48.234;14.320;2024-02-26T04:01:10;96980.00;;;8.70
11321;BMP180;5715;48.234;14.320;2024-02-26T04:03:58;96977.00;;;9.00
11321;BMP180;5715;48.234;14.320;2024-02-26T04:06:47;96973.00;;;8.80
11321;BMP180;5715;48.234;14.320;2024-02-26T04:09:35;96984.00;;;8.80
11321;BMP180;5715;48.234;14.320;2024-02-26T04:12:22;96980.00;;;8.90
11321;BMP180;5715;48.234;14.320;2024-02-26T04:15:11;96980.00;;;9.10
11321;BMP180;5715;48.234;14.320;2024-02-26T04:17:59;96984.00;;;9.10
11321;BMP180;5715;48.234;14.320;2024-02-26T04:20:47;96982.00;;;9.10
11321;BMP180;5715;48.234;14.320;2024-02-26T04:23:35;96984.00;;;9.10
11321;BMP180;5715;48.234;14.320;2024-02-26T04:26:22;96999.00;;;9.20
11321;BMP180;5715;48.234;14.320;2024-02-26T04:29:10;96999.00;;;9.10
11321;BMP180;5715;48.234;14.320;2024-02-26T04:31:58;97000.00;;;9.20
11321;BMP180;5715;48.234;14.320;2024-02-26T04:34:45;96997.00;;;9.30
11321;BMP180;5715;48.234;14.320;2024-02-26T04:37:33;96998.00;;;9.00
11321;BMP180;5715;48.234;14.320;2024-02-26T04:40:21;97002.00;;;9.10
11321;BMP180;5715;48.234;14.320;2024-02-26T04:43:09;96988.00;;;9.00
11321;BMP180;5715;48.234;14.320;2024-02-26T04:45:56;96990.00;;;9.00
11321;BMP180;5715;48.234;14.320;2024-02-26T04:48:45;96993.00;;;8.90
11321;BMP180;5715;48.234;14.320;2024-02-26T04:51:34;96998.00;;;8.90
11321;BMP180;5715;48.234;14.320;2024-02-26T04:54:21;97000.00;;;8.80
11321;BMP180;5715;48.234;14.320;2024-02-26T04:57:09;97009.00;;;8.80
11321;BMP180;5715;48.234;14.320;2024-02-26T04:59:57;97008.00;;;8.70
11321;BMP180;5715;48.234;14.320;2024-02-26T05:02:45;97012.00;;;8.80
11321;BMP180;5715;48.234;14.320;2024-02-26T05:05:33;97006.00;;;8.90
11321;BMP180;5715;48.234;14.320;2024-02-26T05:08:21;97009.00;;;8.80
11321;BMP180;5715;48.234;14.320;2024-02-26T05:11:08;97009.00;;;8.60
11321;BMP180;5715;48.234;14.320;2024-02-26T05:13:56;97015.00;;;8.60
11321;BMP180;5715;48.234;14.320;2024-02-26T05:16:44;97016.00;;;8.70
11321;BMP180;5715;48.234;14.320;2024-02-26T05:19:32;97000.00;;;8.70
11321;BMP180;5715;48.234;14.320;2024-02-26T05:22:20;97010.00;;;8.90
11321;BMP180;5715;48.234;14.320;2024-02-26T05:25:08;97013.00;;;9.00
11321;BMP180;5715;48.234;14.320;2024-02-26T05:27:55;97024.00;;;8.60
11321;BMP180;5715;48.234;14.320;2024-02-26T05:30:43;97021.00;;;8.70
11321;BMP180;5715;48.234;14.320;2024-02-26T05:33:30;97023.00;;;8.70
11321;BMP180;5715;48.234;14.320;2024-02-26T05:36:23;97025.00;;;8.60
11321;BMP180;5715;48.234;14.320;2024-02-26T05:39:10;97022.00;;;8.60
11321;BMP180;5715;48.234;14.320;2024-02-26T05:42:04;97018.00;;;8.70
11321;BMP180;5715;48.234;14.320;2024-02-26T05:44:52;97021.00;;;8.90
11321;BMP180;5715;48.234;14.320;2024-02-26T05:47:40;97025.00;;;8.70
11321;BMP180;5715;48.234;14.320;2024-02-26T05:50:30;97036.00;;;8.80
11321;BMP180;5715;48.234;14.320;2024-02-26T05:53:18;97032.00;;;8.90
11321;BMP180;5715;48.234;14.320;2024-02-26T05:56:06;97024.00;;;8.90
11321;BMP180;5715;48.234;14.320;2024-02-26T05:58:54;97020.00;;;9.00
11321;BMP180;5715;48.234;14.320;2024-02-26T06:01:42;97021.00;;;9.00
11321;BMP180;5715;48.234;14.320;2024-02-26T06:04:29;97034.00;;;9.00
11321;BMP180;5715;48.234;14.320;2024-02-26T06:07:17;97023.00;;;9.10
11321;BMP180;5715;48.234;14.320;2024-02-26T06:10:05;97029.00;;;9.10
11321;BMP180;5715;48.234;14.320;2024-02-26T06:12:53;97032.00;;;9.20
11321;BMP180;5715;48.234;14.320;2024-02-26T06:15:41;97030.00;;;9.10
11321;BMP180;5715;48.234;14.320;2024-02-26T06:18:29;97038.00;;;9.10
11321;BMP180;5715;48.234;14.320;2024-02-26T06:21:17;97042.00;;;9.00
11321;BMP180;5715;48.234;14.320;2024-02-26T06:24:04;97042.00;;;8.90
11321;BMP180;5715;48.234;14.320;2024-02-26T06:26:52;97048.00;;;9.10
11321;BMP180;5715;48.234;14.320;2024-02-26T06:29:40;97046.00;;;9.00
11321;BMP180;5715;48.234;14.320;2024-02-26T06:32:28;97048.00;;;9.00
11321;BMP180;5715;48.234;14.320;2024-02-26T06:35:16;97051.00;;;9.10
11321;BMP180;5715;48.234;14.320;2024-02-26T06:38:04;97049.00;;;9.10
11321;BMP180;5715;48.234;14.320;2024-02-26T06:40:52;97055.00;;;9.20
11321;BMP180;5715;48.234;14.320;2024-02-26T06:43:39;97056.00;;;9.40
11321;BMP180;5715;48.234;14.320;2024-02-26T06:46:27;97059.00;;;9.50
11321;BMP180;5715;48.234;14.320;2024-02-26T06:49:18;97076.00;;;9.50
11321;BMP180;5715;48.234;14.320;2024-02-26T06:52:06;97083.00;;;9.40
11321;BMP180;5715;48.234;14.320;2024-02-26T06:54:54;97088.00;;;9.10
11321;BMP180;5715;48.234;14.320;2024-02-26T06:57:42;97086.00;;;9.30
11321;BMP180;5715;48.234;14.320;2024-02-26T07:00:29;97091.00;;;9.40
11321;BMP180;5715;48.234;14.320;2024-02-26T07:03:17;97086.00;;;9.50
11321;BMP180;5715;48.234;14.320;2024-02-26T07:06:05;97079.00;;;9.40
11321;BMP180;5715;48.234;14.320;2024-02-26T07:08:53;97086.00;;;9.40
11321;BMP180;5715;48.234;14.320;2024-02-26T07:11:41;97082.00;;;9.40
11321;BMP180;5715;48.234;14.320;2024-02-26T07:14:30;97078.00;;;9.40
11321;BMP180;5715;48.234;14.320;2024-02-26T07:17:17;97084.00;;;9.40
11321;BMP180;5715;48.234;14.320;2024-02-26T07:20:06;97098.00;;;9.50
11321;BMP180;5715;48.234;14.320;2024-02-26T07:22:57;97100.00;;;9.50
11321;BMP180;5715;48.234;14.320;2024-02-26T07:25:45;97103.00;;;9.50
11321;BMP180;5715;48.234;14.320;2024-02-26T07:28:35;97094.00;;;9.60
11321;BMP180;5715;48.234;14.320;2024-02-26T07:31:22;97102.00;;;9.80
11321;BMP180;5715;48.234;14.320;2024-02-26T07:34:10;97097.00;;;9.90
11321;BMP180;5715;48.234;14.320;2024-02-26T07:36:58;97094.00;;;10.20
11321;BMP180;5715;48.234;14.320;2024-02-26T07:39:46;97096.00;;;10.10
11321;BMP180;5715;48.234;14.320;2024-02-26T07:42:34;97093.00;;;10.30
11321;BMP180;5715;48.234;14.320;2024-02-26T07:45:22;97093.00;;;10.20
11321;BMP180;5715;48.234;14.320;2024-02-26T07:48:10;97093.00;;;10.30
11321;BMP180;5715;48.234;14.320;2024-02-26T07:50:57;97090.00;;;9.80
11321;BMP180;5715;48.234;14.320;2024-02-26T07:53:47;97102.00;;;10.10
11321;BMP180;5715;48.234;14.320;2024-02-26T07:56:35;97098.00;;;10.20
11321;BMP180;5715;48.234;14.320;2024-02-26T07:59:23;97094.00;;;10.50
11321;BMP180;5715;48.234;14.320;2024-02-26T08:02:11;97097.00;;;10.40
11321;BMP180;5715;48.234;14.320;2024-02-26T08:04:59;97101.00;;;10.40
11321;BMP180;5715;48.234;14.320;2024-02-26T08:07:46;97100.00;;;10.70
11321;BMP180;5715;48.234;14.320;2024-02-26T08:10:36;97097.00;;;10.90
11321;BMP180;5715;48.234;14.320;2024-02-26T08:13:23;97103.00;;;10.40
11321;BMP180;5715;48.234;14.320;2024-02-26T08:16:11;97099.00;;;10.90
11321;BMP180;5715;48.234;14.320;2024-02-26T08:18:59;97104.00;;;10.80
11321;BMP180;5715;48.234;14.320;2024-02-26T08:21:47;97100.00;;;10.80
11321;BMP180;5715;48.234;14.320;2024-02-26T08:24:34;97107.00;;;11.20
11321;BMP180;5715;48.234;14.320;2024-02-26T08:27:22;97102.00;;;11.30
11321;BMP180;5715;48.234;14.320;2024-02-26T08:30:13;97110.00;;;11.60
11321;BMP180;5715;48.234;14.320;2024-02-26T08:33:04;97121.00;;;11.60
11321;BMP180;5715;48.234;14.320;2024-02-26T08:35:51;97115.00;;;11.60
11321;BMP180;5715;48.234;14.320;2024-02-26T08:38:39;97119.00;;;12.00
11321;BMP180;5715;48.234;14.320;2024-02-26T08:41:27;97105.00;;;12.20
11321;BMP180;5715;48.234;14.320;2024-02-26T08:44:14;97106.00;;;12.50
11321;BMP180;5715;48.234;14.320;2024-02-26T08:47:02;97111.00;;;12.70
11321;BMP180;5715;48.234;14.320;2024-02-26T08:49:50;97110.00;;;13.10
11321;BMP180;5715;48.234;14.320;2024-02-26T08:52:38;97122.00;;;12.90
11321;BMP180;5715;48.234;14.320;2024-02-26T08:55:26;97118.00;;;13.40
11321;BMP180;5715;48.234;14.320;2024-02-26T08:58:13;97108.00;;;13.60
11321;BMP180;5715;48.234;14.320;2024-02-26T09:01:01;97119.00;;;13.30
11321;BMP180;5715;48.234;14.320;2024-02-26T09:03:49;97111.00;;;13.50
11321;BMP180;5715;48.234;14.320;2024-02-26T09:06:37;97112.00;;;13.60
11321;BMP180;5715;48.234;14.320;2024-02-26T09:09:25;97118.00;;;13.30
11321;BMP180;5715;48.234;14.320;2024-02-26T09:12:13;97111.00;;;13.20
11321;BMP180;5715;48.234;14.320;2024-02-26T09:15:01;97112.00;;;13.50
11321;BMP180;5715;48.234;14.320;2024-02-26T09:17:49;97110.00;;;13.60
11321;BMP180;5715;48.234;14.320;2024-02-26T09:20:37;97118.00;;;13.60
11321;BMP180;5715;48.234;14.320;2024-02-26T09:23:27;97117.00;;;13.40
11321;BMP180;5715;48.234;14.320;2024-02-26T09:26:14;97115.00;;;13.70
11321;BMP180;5715;48.234;14.320;2024-02-26T09:29:02;97113.00;;;13.60
11321;BMP180;5715;48.234;14.320;2024-02-26T09:31:51;97131.00;;;13.60
11321;BMP180;5715;48.234;14.320;2024-02-26T09:34:40;97131.00;;;14.10
11321;BMP180;5715;48.234;14.320;2024-02-26T09:37:29;97121.00;;;14.20
11321;BMP180;5715;48.234;14.320;2024-02-26T09:40:16;97119.00;;;13.90
11321;BMP180;5715;48.234;14.320;2024-02-26T09:43:05;97119.00;;;14.40
11321;BMP180;5715;48.234;14.320;2024-02-26T09:45:55;97118.00;;;14.90
11321;BMP180;5715;48.234;14.320;2024-02-26T09:48:45;97116.00;;;14.90
11321;BMP180;5715;48.234;14.320;2024-02-26T09:51:34;97121.00;;;15.40
11321;BMP180;5715;48.234;14.320;2024-02-26T09:54:24;97118.00;;;15.50
11321;BMP180;5715;48.234;14.320;2024-02-26T09:57:15;97113.00;;;15.80
11321;BMP180;5715;48.234;14.320;2024-02-26T10:00:08;97123.00;;;15.80
11321;BMP180;5715;48.234;14.320;2024-02-26T10:02:59;97132.00;;;15.70
11321;BMP180;5715;48.234;14.320;2024-02-26T10:05:50;97131.00;;;15.60
11321;BMP180;5715;48.234;14.320;2024-02-26T10:08:39;97125.00;;;15.80
11321;BMP180;5715;48.234;14.320;2024-02-26T10:11:27;97119.00;;;15.90
11321;BMP180;5715;48.234;14.320;2024-02-26T10:14:18;97124.00;;;15.80
11321;BMP180;5715;48.234;14.320;2024-02-26T10:17:10;97133.00;;;15.60
11321;BMP180;5715;48.234;14.320;2024-02-26T10:20:18;97125.00;;;15.90
11321;BMP180;5715;48.234;14.320;2024-02-26T10:23:10;97116.00;;;16.20
11321;BMP180;5715;48.234;14.320;2024-02-26T10:25:57;97117.00;;;16.40
11321;BMP180;5715;48.234;14.320;2024-02-26T10:28:45;97115.00;;;16.80
11321;BMP180;5715;48.234;14.320;2024-02-26T10:31:37;97111.00;;;16.90
11321;BMP180;5715;48.234;14.320;2024-02-26T10:34:26;97111.00;;;16.90
11321;BMP180;5715;48.234;14.320;2024-02-26T10:37:14;97110.00;;;16.80
11321;BMP180;5715;48.234;14.320;2024-02-26T10:40:02;97120.00;;;17.00
11321;BMP180;5715;48.234;14.320;2024-02-26T10:42:50;97113.00;;;17.20
11321;BMP180;5715;48.234;14.320;2024-02-26T10:45:38;97111.00;;;16.80
11321;BMP180;5715;48.234;14.320;2024-02-26T10:48:31;97103.00;;;17.40
11321;BMP180;5715;48.234;14.320;2024-02-26T10:51:27;97106.00;;;17.80
11321;BMP180;5715;48.234;14.320;2024-02-26T10:54:17;97101.00;;;17.30
11321;BMP180;5715;48.234;14.320;2024-02-26T10:57:06;97093.00;;;17.20
11321;BMP180;5715;48.234;14.320;2024-02-26T10:59:56;97091.00;;;17.80
11321;BMP180;5715;48.234;14.320;2024-02-26T11:02:45;97086.00;;;18.20
11321;BMP180;5715;48.234;14.320;2024-02-26T11:05:37;97091.00;;;18.30
11321;BMP180;5715;48.234;14.320;2024-02-26T11:08:26;97099.00;;;18.60
11321;BMP180;5715;48.234;14.320;2024-02-26T11:11:17;97091.00;;;18.50
11321;BMP180;5715;48.234;14.320;2024-02-26T11:14:06;97100.00;;;18.30
11321;BMP180;5715;48.234;14.320;2024-02-26T11:16:58;97098.00;;;18.20
11321;BMP180;5715;48.234;14.320;2024-02-26T11:19:50;97098.00;;;18.30
11321;BMP180;5715;48.234;14.320;2024-02-26T11:22:38;97096.00;;;18.10
11321;BMP180;5715;48.234;14.320;2024-02-26T11:25:26;97095.00;;;18.00
11321;BMP180;5715;48.234;14.320;2024-02-26T11:28:17;97097.00;;;18.10
11321;BMP180;5715;48.234;14.320;2024-02-26T11:31:05;97090.00;;;18.30
11321;BMP180;5715;48.234;14.320;2024-02-26T11:33:56;97086.00;;;18.80
11321;BMP180;5715;48.234;14.320;2024-02-26T11:36:46;97083.00;;;18.90
11321;BMP180;5715;48.234;14.320;2024-02-26T11:39:34;97086.00;;;19.10
11321;BMP180;5715;48.234;14.320;2024-02-26T11:42:24;97086.00;;;18.90
11321;BMP180;5715;48.234;14.320;2024-02-26T11:48:29;97078.00;;;19.60
11321;BMP180;5715;48.234;14.320;2024-02-26T11:51:17;97076.00;;;20.10
11321;BMP180;5715;48.234;14.320;2024-02-26T11:54:04;97073.00;;;20.30
11321;BMP180;5715;48.234;14.320;2024-02-26T11:56:52;97083.00;;;20.50
11321;BMP180;5715;48.234;14.320;2024-02-26T11:59:40;97083.00;;;20.30
11321;BMP180;5715;48.234;14.320;2024-02-26T12:02:50;97085.00;;;20.50
11321;BMP180;5715;48.234;14.320;2024-02-26T12:05:49;97078.00;;;20.60
11321;BMP180;5715;48.234;14.320;2024-02-26T12:08:39;97070.00;;;20.80
11321;BMP180;5715;48.234;14.320;2024-02-26T12:11:27;97063.00;;;20.60
11321;BMP180;5715;48.234;14.320;2024-02-26T12:14:18;97065.00;;;20.40
11321;BMP180;5715;48.234;14.320;2024-02-26T12:17:08;97068.00;;;20.10
11321;BMP180;5715;48.234;14.320;2024-02-26T12:20:10;97067.00;;;20.00
11321;BMP180;5715;48.234;14.320;2024-02-26T12:22:59;97069.00;;;20.00
11321;BMP180;5715;48.234;14.320;2024-02-26T12:25:46;97067.00;;;19.50
11321;BMP180;5715;48.234;14.320;2024-02-26T12:28:35;97072.00;;;19.60
11321;BMP180;5715;48.234;14.320;2024-02-26T12:31:23;97076.00;;;19.40
11321;BMP180;5715;48.234;14.320;2024-02-26T12:34:10;97076.00;;;19.60
11321;BMP180;5715;48.234;14.320;2024-02-26T12:36:59;97074.00;;;19.10
11321;BMP180;5715;48.234;14.320;2024-02-26T12:39:46;97074.00;;;18.90
11321;BMP180;5715;48.234;14.320;2024-02-26T12:42:35;97068.00;;;19.00
11321;BMP180;5715;48.234;14.320;2024-02-26T12:45:26;97064.00;;;18.90
11321;BMP180;5715;48.234;14.320;2024-02-26T12:48:15;97076.00;;;18.80
11321;BMP180;5715;48.234;14.320;2024-02-26T12:51:12;97075.00;;;19.00
11321;BMP180;5715;48.234;14.320;2024-02-26T12:54:03;97074.00;;;19.30
11321;BMP180;5715;48.234;14.320;2024-02-26T12:56:51;97079.00;;;19.40
11321;BMP180;5715;48.234;14.320;2024-02-26T12:59:39;97078.00;;;19.30
11321;BMP180;5715;48.234;14.320;2024-02-26T13:02:31;97074.00;;;19.40
11321;BMP180;5715;48.234;14.320;2024-02-26T13:05:20;97076.00;;;19.30
11321;BMP180;5715;48.234;14.320;2024-02-26T13:08:09;97072.00;;;19.60
11321;BMP180;5715;48.234;14.320;2024-02-26T13:11:00;97074.00;;;19.80
11321;BMP180;5715;48.234;14.320;2024-02-26T13:13:51;97084.00;;;19.60
11321;BMP180;5715;48.234;14.320;2024-02-26T13:16:40;97075.00;;;19.80
11321;BMP180;5715;48.234;14.320;2024-02-26T13:19:27;97080.00;;;19.80
11321;BMP180;5715;48.234;14.320;2024-02-26T13:22:15;97076.00;;;19.80
11321;BMP180;5715;48.234;14.320;2024-02-26T13:25:04;97074.00;;;19.40
11321;BMP180;5715;48.234;14.320;2024-02-26T13:27:52;97072.00;;;19.30
11321;BMP180;5715;48.234;14.320;2024-02-26T13:30:39;97073.00;;;19.60
11321;BMP180;5715;48.234;14.320;2024-02-26T13:33:29;97073.00;;;19.70
11321;BMP180;5715;48.234;14.320;2024-02-26T13:36:17;97075.00;;;19.10
11321;BMP180;5715;48.234;14.320;2024-02-26T13:39:05;97080.00;;;19.50
11321;BMP180;5715;48.234;14.320;2024-02-26T13:41:54;97068.00;;;19.50
11321;BMP180;5715;48.234;14.320;2024-02-26T13:44:42;97063.00;;;19.60
11321;BMP180;5715;48.234;14.320;2024-02-26T13:47:30;97059.00;;;19.20
11321;BMP180;5715;48.234;14.320;2024-02-26T13:50:20;97067.00;;;19.40
11321;BMP180;5715;48.234;14.320;2024-02-26T13:53:12;97068.00;;;19.40
11321;BMP180;5715;48.234;14.320;2024-02-26T13:56:00;97071.00;;;19.70
11321;BMP180;5715;48.234;14.320;2024-02-26T13:58:48;97071.00;;;19.70
11321;BMP180;5715;48.234;14.320;2024-02-26T14:01:36;97074.00;;;19.70
11321;BMP180;5715;48.234;14.320;2024-02-26T14:04:23;97082.00;;;20.20
11321;BMP180;5715;48.234;14.320;2024-02-26T14:07:12;97086.00;;;20.30
11321;BMP180;5715;48.234;14.320;2024-02-26T14:10:00;97088.00;;;20.50
11321;BMP180;5715;48.234;14.320;2024-02-26T14:12:48;97088.00;;;20.60
11321;BMP180;5715;48.234;14.320;2024-02-26T14:15:36;97093.00;;;20.30
11321;BMP180;5715;48.234;14.320;2024-02-26T14:18:26;97086.00;;;20.40
11321;BMP180;5715;48.234;14.320;2024-02-26T14:21:15;97094.00;;;20.50
11321;BMP180;5715;48.234;14.320;2024-02-26T14:24:03;97089.00;;;20.30
11321;BMP180;5715;48.234;14.320;2024-02-26T14:26:51;97084.00;;;20.40
11321;BMP180;5715;48.234;14.320;2024-02-26T14:29:38;97086.00;;;20.10
11321;BMP180;5715;48.234;14.320;2024-02-26T14:32:29;97094.00;;;20.20
11321;BMP180;5715;48.234;14.320;2024-02-26T14:35:16;97097.00;;;20.20
11321;BMP180;5715;48.234;14.320;2024-02-26T14:38:04;97092.00;;;20.30
11321;BMP180;5715;48.234;14.320;2024-02-26T14:40:52;97093.00;;;20.20
11321;BMP180;5715;48.234;14.320;2024-02-26T14:43:40;97089.00;;;20.30
11321;BMP180;5715;48.234;14.320;2024-02-26T14:46:30;97087.00;;;20.00
11321;BMP180;5715;48.234;14.320;2024-02-26T14:49:18;97098.00;;;19.90
11321;BMP180;5715;48.234;14.320;2024-02-26T14:52:06;97104.00;;;20.00
11321;BMP180;5715;48.234;14.320;2024-02-26T14:54:53;97094.00;;;19.40
11321;BMP180;5715;48.234;14.320;2024-02-26T14:57:41;97097.00;;;19.50
11321;BMP180;5715;48.234;14.320;2024-02-26T15:00:29;97093.00;;;18.90
11321;BMP180;5715;48.234;14.320;2024-02-26T15:03:16;97098.00;;;19.80
11321;BMP180;5715;48.234;14.320;2024-02-26T15:06:05;97096.00;;;19.50
11321;BMP180;5715;48.234;14.320;2024-02-26T15:08:53;97091.00;;;19.20
11321;BMP180;5715;48.234;14.320;2024-02-26T15:11:40;97097.00;;;19.40
11321;BMP180;5715;48.234;14.320;2024-02-26T15:14:28;97104.00;;;19.60
11321;BMP180;5715;48.234;14.320;2024-02-26T15:17:16;97104.00;;;19.70
11321;BMP180;5715;48.234;14.320;2024-02-26T15:20:04;97100.00;;;19.70
11321;BMP180;5715;48.234;14.320;2024-02-26T15:22:55;97094.00;;;19.80
11321;BMP180;5715;48.234;14.320;2024-02-26T15:25:44;97101.00;;;19.70
11321;BMP180;5715;48.234;14.320;2024-02-26T15:28:31;97107.00;;;19.60
11321;BMP180;5715;48.234;14.320;2024-02-26T15:31:20;97112.00;;;19.70
11321;BMP180;5715;48.234;14.320;2024-02-26T15:34:07;97114.00;;;19.70
11321;BMP180;5715;48.234;14.320;2024-02-26T15:36:55;97112.00;;;19.70
11321;BMP180;5715;48.234;14.320;2024-02-26T15:39:43;97113.00;;;19.50
11321;BMP180;5715;48.234;14.320;2024-02-26T15:42:33;97121.00;;;19.30
11321;BMP180;5715;48.234;14.320;2024-02-26T15:45:20;97129.00;;;19.50
11321;BMP180;5715;48.234;14.320;2024-02-26T15:48:08;97128.00;;;19.50
11321;BMP180;5715;48.234;14.320;2024-02-26T15:50:58;97124.00;;;19.30
11321;BMP180;5715;48.234;14.320;2024-02-26T15:53:46;97129.00;;;19.30
11321;BMP180;5715;48.234;14.320;2024-02-26T15:56:35;97133.00;;;19.30
11321;BMP180;5715;48.234;14.320;2024-02-26T15:59:23;97134.00;;;19.10
11321;BMP180;5715;48.234;14.320;2024-02-26T16:02:12;97134.00;;;19.20
11321;BMP180;5715;48.234;14.320;2024-02-26T16:05:00;97142.00;;;19.20
11321;BMP180;5715;48.234;14.320;2024-02-26T16:07:59;97135.00;;;19.00
11321;BMP180;5715;48.234;14.320;2024-02-26T16:10:48;97141.00;;;18.90
11321;BMP180;5715;48.234;14.320;2024-02-26T16:13:36;97139.00;;;19.00
11321;BMP180;5715;48.234;14.320;2024-02-26T16:16:28;97138.00;;;18.70
11321;BMP180;5715;48.234;14.320;2024-02-26T16:19:20;97138.00;;;18.20